createdAt,value
2022-09-28T00:01:23.798Z,20.70
2022-09-28T00:03:59.948Z,19.90
2022-09-28T00:06:30.474Z,21.30
2022-09-28T00:08:58.613Z,19.80
2022-09-28T00:11:28.333Z,19.30
2022-09-28T00:14:00.238Z,20.40
2022-09-28T00:16:33.162Z,21.30
2022-09-28T00:19:01.713Z,21.70
2022-09-28T00:21:34.698Z,21.80
2022-09-28T00:24:18.031Z,19.20
2022-09-28T00:26:52.188Z,21.50
2022-09-28T00:29:34.347Z,22.00
2022-09-28T00:32:13.496Z,20.70
2022-09-28T00:34:46.116Z,24.20
2022-09-28T00:37:15.361Z,22.00
2022-09-28T00:39:44.048Z,22.70
2022-09-28T00:42:17.632Z,29.20
2022-09-28T00:44:48.321Z,28.40
2022-09-28T00:47:34.773Z,22.50
2022-09-28T00:50:10.418Z,23.80
2022-09-28T00:52:54.900Z,26.00
2022-09-28T00:55:36.357Z,24.40
2022-09-28T00:58:09.107Z,22.50
2022-09-28T01:00:37.939Z,22.00
2022-09-28T01:03:05.866Z,22.70
2022-09-28T01:05:35.256Z,22.10
2022-09-28T01:08:05.547Z,22.70
2022-09-28T01:10:34.059Z,23.30
2022-09-28T01:13:01.958Z,23.40
2022-09-28T01:15:31.931Z,23.70
2022-09-28T01:18:32.331Z,23.80
2022-09-28T01:21:20.339Z,18.70
2022-09-28T01:24:04.313Z,21.30
2022-09-28T01:26:56.316Z,22.40
2022-09-28T01:29:26.950Z,24.80
2022-09-28T01:32:30.059Z,16.20
2022-09-28T01:37:47.904Z,16.20
2022-09-28T01:40:17.525Z,14.60
2022-09-28T01:42:53.280Z,15.60
2022-09-28T01:45:31.317Z,12.40
2022-09-28T01:48:04.925Z,13.60
2022-09-28T01:50:43.011Z,11.30
2022-09-28T01:53:16.918Z,11.40
2022-09-28T01:55:54.947Z,10.40
2022-09-28T01:58:46.101Z,12.40
2022-09-28T02:01:24.093Z,10.00
2022-09-28T02:04:08.334Z,11.60
2022-09-28T02:06:49.268Z,8.60
2022-09-28T02:09:33.046Z,9.60
2022-09-28T02:12:10.850Z,8.50
2022-09-28T02:14:44.169Z,10.50
2022-09-28T02:17:12.947Z,9.20
2022-09-28T02:19:41.505Z,7.70
2022-09-28T02:22:28.200Z,9.40
2022-09-28T02:24:58.109Z,8.00
2022-09-28T02:27:44.796Z,7.90
2022-09-28T02:30:13.200Z,7.20
2022-09-28T02:32:45.210Z,9.50
2022-09-28T02:35:17.063Z,7.60
2022-09-28T02:37:46.410Z,8.50
2022-09-28T02:40:20.815Z,9.50
2022-09-28T02:43:13.715Z,11.20
2022-09-28T02:45:56.683Z,10.00
2022-09-28T02:48:43.625Z,10.50
2022-09-28T02:51:54.378Z,10.00
2022-09-28T02:55:03.290Z,10.80
2022-09-28T02:57:33.884Z,11.50
2022-09-28T03:00:12.966Z,8.90
2022-09-28T03:03:12.916Z,9.10
2022-09-28T03:06:00.468Z,8.10
2022-09-28T03:08:38.378Z,8.90
2022-09-28T03:11:28.849Z,10.20
2022-09-28T03:13:57.794Z,10.70
2022-09-28T03:16:35.744Z,10.20
2022-09-28T03:19:03.965Z,9.30
2022-09-28T03:21:31.871Z,8.40
2022-09-28T03:23:59.786Z,8.60
2022-09-28T03:26:27.682Z,9.20
2022-09-28T03:28:55.587Z,8.30
2022-09-28T03:31:24.676Z,10.20
2022-09-28T03:33:53.026Z,16.20
2022-09-28T03:36:20.852Z,8.50
2022-09-28T03:38:48.901Z,11.10
2022-09-28T03:41:16.891Z,14.50
2022-09-28T03:43:45.152Z,12.40
2022-09-28T03:46:14.296Z,9.80
2022-09-28T03:48:46.329Z,9.20
2022-09-28T03:51:14.405Z,11.90
2022-09-28T03:53:42.367Z,11.90
2022-09-28T03:56:17.528Z,11.80
2022-09-28T03:58:45.502Z,10.10
2022-09-28T04:01:18.297Z,10.90
2022-09-28T04:03:54.685Z,26.00
2022-09-28T04:06:24.129Z,20.80
2022-09-28T04:08:52.674Z,12.10
2022-09-28T04:11:42.839Z,15.40
2022-09-28T04:14:17.570Z,11.60
2022-09-28T04:16:45.695Z,13.40
2022-09-28T04:19:24.337Z,14.00
2022-09-28T04:22:18.075Z,18.50
2022-09-28T04:24:46.569Z,21.10
2022-09-28T04:27:33.036Z,19.60
2022-09-28T04:30:01.954Z,15.80
2022-09-28T04:32:31.219Z,15.40
2022-09-28T04:34:59.141Z,17.60
2022-09-28T04:37:27.105Z,21.10
2022-09-28T04:39:54.995Z,19.20
2022-09-28T04:42:22.932Z,23.10
2022-09-28T04:44:51.641Z,20.50
2022-09-28T04:47:19.576Z,15.00
2022-09-28T04:49:50.042Z,16.50
2022-09-28T04:52:32.267Z,13.30
2022-09-28T04:55:00.170Z,14.50
2022-09-28T04:57:28.110Z,14.10
2022-09-28T04:59:55.929Z,11.20
2022-09-28T05:02:24.711Z,10.40
2022-09-28T05:05:12.741Z,10.10
2022-09-28T05:07:50.044Z,10.30
2022-09-28T05:10:19.999Z,11.20
2022-09-28T05:12:48.362Z,15.40
2022-09-28T05:15:17.784Z,24.30
2022-09-28T05:17:45.691Z,24.20
2022-09-28T05:20:22.979Z,17.00
2022-09-28T05:22:50.915Z,12.00
2022-09-28T05:25:19.685Z,18.80
2022-09-28T05:27:57.461Z,22.40
2022-09-28T05:30:47.744Z,22.00
2022-09-28T05:33:27.228Z,24.10
2022-09-28T05:36:11.279Z,17.10
2022-09-28T05:38:39.273Z,20.70
2022-09-28T05:41:07.277Z,30.20
2022-09-28T05:43:35.339Z,31.50
2022-09-28T05:46:06.583Z,32.30
2022-09-28T05:48:37.168Z,15.80
2022-09-28T05:51:05.262Z,14.20
2022-09-28T05:53:33.123Z,19.40
2022-09-28T05:56:01.410Z,38.50
2022-09-28T05:58:32.253Z,33.30
2022-09-28T06:01:00.706Z,19.80
2022-09-28T06:03:28.901Z,14.80
2022-09-28T06:05:56.879Z,11.70
2022-09-28T06:08:25.486Z,16.30
2022-09-28T06:11:07.609Z,34.40
2022-09-28T06:13:35.816Z,15.30
2022-09-28T06:16:05.059Z,12.90
2022-09-28T06:18:33.065Z,13.60
2022-09-28T06:21:17.739Z,13.20
2022-09-28T06:23:49.369Z,19.70
2022-09-28T06:26:19.093Z,19.60
2022-09-28T06:28:47.282Z,19.70
2022-09-28T06:31:15.982Z,17.20
2022-09-28T06:33:49.083Z,19.10
2022-09-28T06:36:19.837Z,8.50
2022-09-28T06:38:47.873Z,11.10
2022-09-28T06:41:20.155Z,12.10
2022-09-28T06:43:48.754Z,13.10
2022-09-28T06:46:35.795Z,12.20
2022-09-28T06:49:35.789Z,18.00
2022-09-28T06:52:50.220Z,20.30
2022-09-28T06:55:50.330Z,19.00
2022-09-28T06:58:21.038Z,22.70
2022-09-28T07:00:51.889Z,27.60
2022-09-28T07:03:22.658Z,27.40
2022-09-28T07:06:14.800Z,18.20
2022-09-28T07:09:04.798Z,16.00
2022-09-28T07:11:59.809Z,13.80
2022-09-28T07:14:48.077Z,14.10
2022-09-28T07:17:16.981Z,17.10
2022-09-28T07:19:44.907Z,11.40
2022-09-28T07:22:18.728Z,12.20
2022-09-28T07:24:48.938Z,8.00
2022-09-28T07:27:39.692Z,8.40
2022-09-28T07:30:40.683Z,10.40
2022-09-28T07:33:16.121Z,7.40
2022-09-28T07:35:58.242Z,12.60
2022-09-28T07:38:29.819Z,11.90
2022-09-28T07:41:11.751Z,6.50
2022-09-28T07:43:45.003Z,7.20
2022-09-28T07:46:21.379Z,8.70
2022-09-28T07:48:57.194Z,8.50
2022-09-28T07:54:31.821Z,6.40
2022-09-28T07:57:19.561Z,8.30
2022-09-28T07:59:55.165Z,4.50
2022-09-28T08:02:41.728Z,5.20
2022-09-28T08:05:10.163Z,5.60
2022-09-28T08:07:58.891Z,5.40
2022-09-28T08:10:51.069Z,5.80
2022-09-28T08:13:48.400Z,4.00
2022-09-28T08:16:56.704Z,7.10
2022-09-28T08:26:38.372Z,3.50
2022-09-28T08:29:32.949Z,4.50
2022-09-28T08:36:04.872Z,3.70
2022-09-28T08:38:51.393Z,6.60
2022-09-28T08:42:00.026Z,4.00
2022-09-28T08:44:57.978Z,4.50
2022-09-28T08:48:22.398Z,4.50
2022-09-28T08:51:24.378Z,5.00
2022-09-28T08:54:45.041Z,4.10
2022-09-28T08:58:25.362Z,7.40
2022-09-28T09:00:54.331Z,4.40
2022-09-28T09:03:45.468Z,6.50
2022-09-28T09:07:21.597Z,7.10
2022-09-28T09:10:12.377Z,6.60
2022-09-28T09:12:41.292Z,4.60
2022-09-28T09:15:34.081Z,4.00
2022-09-28T09:18:23.541Z,5.90
2022-09-28T09:21:20.131Z,4.00
2022-09-28T09:23:56.687Z,5.80
2022-09-28T09:26:39.279Z,5.80
2022-09-28T09:29:30.001Z,5.30
2022-09-28T09:32:12.105Z,5.40
2022-09-28T09:35:23.416Z,4.10
2022-09-28T09:38:40.360Z,4.10
2022-09-28T09:45:36.078Z,4.00
2022-09-28T09:48:43.381Z,7.00
2022-09-28T09:51:30.352Z,2.70
2022-09-28T09:54:37.847Z,3.10
2022-09-28T09:57:29.361Z,3.40
2022-09-28T10:00:17.573Z,4.40
2022-09-28T10:03:04.995Z,8.00
2022-09-28T10:05:48.186Z,4.90
2022-09-28T10:08:20.496Z,3.10
2022-09-28T10:10:53.196Z,2.70
2022-09-28T10:13:24.598Z,13.20
2022-09-28T10:15:55.652Z,18.80
2022-09-28T10:18:31.444Z,32.80
2022-09-28T10:21:21.772Z,3.70
2022-09-28T10:24:02.900Z,7.30
2022-09-28T10:26:41.753Z,4.40
2022-09-28T10:29:23.367Z,3.10
2022-09-28T10:31:58.381Z,5.20
2022-09-28T10:34:40.203Z,3.20
2022-09-28T10:37:14.891Z,4.90
2022-09-28T10:40:05.961Z,4.30
2022-09-28T10:42:36.315Z,4.40
2022-09-28T10:45:23.998Z,2.60
2022-09-28T10:47:52.282Z,5.00
2022-09-28T10:50:24.779Z,9.30
2022-09-28T10:53:22.715Z,3.20
2022-09-28T10:58:52.242Z,2.70
2022-09-28T11:01:40.514Z,3.90
2022-09-28T11:04:28.175Z,3.70
2022-09-28T11:07:03.302Z,2.70
2022-09-28T11:09:35.092Z,3.50
2022-09-28T11:12:16.386Z,4.50
2022-09-28T11:14:44.919Z,3.90
2022-09-28T11:17:17.231Z,3.90
2022-09-28T11:19:45.977Z,3.70
2022-09-28T11:22:31.244Z,4.70
2022-09-28T11:25:17.495Z,2.30
2022-09-28T11:27:54.323Z,3.90
2022-09-28T11:30:29.564Z,3.00
2022-09-28T11:33:41.842Z,3.90
2022-09-28T11:37:02.613Z,2.10
2022-09-28T11:39:52.928Z,2.40
2022-09-28T11:42:41.044Z,5.00
2022-09-28T11:45:21.778Z,5.20
2022-09-28T11:47:52.919Z,4.90
2022-09-28T11:50:28.549Z,2.70
2022-09-28T11:53:04.687Z,6.90
2022-09-28T11:55:38.430Z,3.70
2022-09-28T11:58:14.821Z,5.50
2022-09-28T12:00:53.729Z,2.70
2022-09-28T12:03:44.727Z,2.70
2022-09-28T12:06:18.313Z,5.50
2022-09-28T12:08:54.233Z,6.20
2022-09-28T12:11:36.491Z,3.40
2022-09-28T12:14:45.713Z,10.10
2022-09-28T12:17:29.848Z,5.70
2022-09-28T12:20:16.941Z,3.80
2022-09-28T12:22:54.854Z,6.60
2022-09-28T12:25:24.666Z,6.30
2022-09-28T12:28:12.901Z,5.20
2022-09-28T12:30:43.941Z,7.30
2022-09-28T12:33:17.799Z,3.90
2022-09-28T12:35:56.129Z,6.00
2022-09-28T12:38:42.470Z,7.30
2022-09-28T12:41:22.664Z,4.80
2022-09-28T12:44:17.433Z,6.70
2022-09-28T12:52:58.074Z,6.10
2022-09-28T12:55:44.050Z,5.60
2022-09-28T12:58:30.527Z,6.40
2022-09-28T13:01:04.231Z,6.20
2022-09-28T13:04:27.769Z,9.10
2022-09-28T13:07:41.116Z,4.40
2022-09-28T13:10:33.305Z,6.90
2022-09-28T13:13:22.799Z,3.30
2022-09-28T13:16:05.026Z,3.80
2022-09-28T13:19:16.113Z,5.70
2022-09-28T13:22:06.632Z,3.60
2022-09-28T13:24:43.988Z,3.80
2022-09-28T13:27:19.537Z,4.30
2022-09-28T13:29:50.412Z,2.80
2022-09-28T13:32:19.075Z,5.40
2022-09-28T13:34:50.600Z,4.80
2022-09-28T13:37:24.488Z,2.50
2022-09-28T13:39:53.627Z,3.20
2022-09-28T13:42:39.018Z,2.50
2022-09-28T13:45:24.934Z,4.40
2022-09-28T13:48:05.369Z,4.90
2022-09-28T13:50:47.220Z,4.90
2022-09-28T13:53:33.916Z,4.10
2022-09-28T13:56:26.471Z,2.30
2022-09-28T13:59:18.256Z,5.80
2022-09-28T14:02:07.079Z,4.30
2022-09-28T14:04:54.927Z,3.80
2022-09-28T14:07:35.081Z,5.30
2022-09-28T14:10:24.853Z,6.90
2022-09-28T14:12:55.059Z,3.00
2022-09-28T14:15:28.840Z,3.30
2022-09-28T14:18:33.672Z,3.50
2022-09-28T14:21:32.057Z,3.10
2022-09-28T14:24:34.361Z,5.00
2022-09-28T14:27:17.540Z,4.50
2022-09-28T14:29:55.604Z,5.10
2022-09-28T14:32:33.263Z,7.40
2022-09-28T14:35:05.028Z,5.20
2022-09-28T14:37:58.843Z,5.20
2022-09-28T14:41:12.678Z,6.20
2022-09-28T14:43:44.121Z,5.00
2022-09-28T14:46:12.039Z,4.50
2022-09-28T14:49:20.415Z,4.90
2022-09-28T14:51:48.281Z,5.50
2022-09-28T14:54:27.984Z,6.00
2022-09-28T14:57:15.436Z,6.70
2022-09-28T14:59:46.260Z,4.20
2022-09-28T15:02:25.140Z,6.50
2022-09-28T15:05:14.389Z,7.80
2022-09-28T15:07:52.295Z,6.80
2022-09-28T15:10:37.238Z,5.50
2022-09-28T15:13:16.713Z,4.70
2022-09-28T15:15:50.577Z,3.60
2022-09-28T15:18:18.555Z,4.40
2022-09-28T15:20:49.278Z,4.60
2022-09-28T15:23:33.032Z,4.20
2022-09-28T15:26:02.544Z,5.60
2022-09-28T15:28:34.322Z,3.90
2022-09-28T15:31:04.882Z,4.30
2022-09-28T15:33:53.611Z,7.00
2022-09-28T15:36:27.953Z,8.00
2022-09-28T15:41:31.244Z,5.50
2022-09-28T15:44:12.747Z,6.00
2022-09-28T15:46:48.077Z,7.30
2022-09-28T15:49:44.091Z,5.10
2022-09-28T15:52:27.628Z,5.10
2022-09-28T15:54:55.970Z,9.20
2022-09-28T15:58:19.806Z,6.90
2022-09-28T16:00:49.953Z,7.20
2022-09-28T16:03:17.808Z,6.60
2022-09-28T16:06:07.048Z,10.50
2022-09-28T16:08:43.985Z,7.10
2022-09-28T16:11:17.888Z,7.40
2022-09-28T16:14:07.298Z,6.70
2022-09-28T16:16:53.350Z,7.30
2022-09-28T16:19:25.547Z,8.40
2022-09-28T16:21:56.536Z,6.40
2022-09-28T16:24:33.481Z,9.20
2022-09-28T16:27:41.114Z,8.50
2022-09-28T16:30:15.189Z,8.00
2022-09-28T16:32:49.749Z,9.10
2022-09-28T16:35:23.611Z,9.30
2022-09-28T16:38:14.874Z,10.80
2022-09-28T16:40:51.862Z,10.00
2022-09-28T16:43:29.106Z,11.60
2022-09-28T16:46:00.482Z,9.50
2022-09-28T16:48:33.931Z,8.00
2022-09-28T16:51:02.140Z,7.10
2022-09-28T16:53:49.304Z,7.20
2022-09-28T16:56:17.736Z,9.80
2022-09-28T16:58:48.156Z,7.40
2022-09-28T17:01:16.214Z,7.30
2022-09-28T17:03:47.082Z,9.00
2022-09-28T17:06:17.036Z,7.80
2022-09-28T17:08:45.173Z,7.90
2022-09-28T17:11:24.203Z,8.00
2022-09-28T17:13:56.826Z,6.20
2022-09-28T17:19:23.961Z,6.90
2022-09-28T17:21:52.765Z,7.00
2022-09-28T17:24:20.937Z,7.10
2022-09-28T17:26:51.154Z,8.20
2022-09-28T17:29:19.676Z,10.60
2022-09-28T17:31:47.702Z,7.20
2022-09-28T17:34:16.761Z,10.00
2022-09-28T17:36:45.240Z,8.10
2022-09-28T17:39:15.658Z,8.70
2022-09-28T17:41:43.659Z,8.90
2022-09-28T17:44:15.446Z,12.00
2022-09-28T17:46:49.220Z,11.10
2022-09-28T17:49:18.372Z,19.60
2022-09-28T17:51:46.379Z,30.20
2022-09-28T17:54:16.934Z,40.30
2022-09-28T17:56:45.586Z,46.30
2022-09-28T17:59:16.461Z,38.20
2022-09-28T18:01:44.533Z,32.90
2022-09-28T18:04:33.426Z,26.10
2022-09-28T18:07:01.754Z,14.50
2022-09-28T18:09:29.782Z,15.10
2022-09-28T18:12:04.219Z,11.80
2022-09-28T18:14:32.401Z,16.40
2022-09-28T18:17:00.340Z,17.60
2022-09-28T18:19:31.894Z,20.00
2022-09-28T18:22:01.495Z,15.80
2022-09-28T18:24:32.646Z,14.60
2022-09-28T18:27:00.822Z,15.60
2022-09-28T18:29:33.427Z,16.40
2022-09-28T18:32:02.629Z,14.00
2022-09-28T18:34:30.688Z,16.40
2022-09-28T18:36:59.288Z,20.10
2022-09-28T18:39:27.605Z,10.20
2022-09-28T18:41:55.764Z,17.50
2022-09-28T18:44:24.171Z,16.00
2022-09-28T18:46:52.335Z,9.00
2022-09-28T18:49:21.620Z,14.90
2022-09-28T18:51:50.113Z,12.20
2022-09-28T18:54:18.300Z,14.20
2022-09-28T18:56:46.243Z,13.00
2022-09-28T18:59:15.423Z,13.40
2022-09-28T19:01:43.621Z,13.60
2022-09-28T19:04:12.980Z,13.70
2022-09-28T19:06:43.144Z,20.90
2022-09-28T19:09:13.211Z,23.40
2022-09-28T19:11:41.615Z,19.80
2022-09-28T19:14:11.529Z,18.50
2022-09-28T19:16:39.482Z,17.40
2022-09-28T19:19:07.658Z,17.60
2022-09-28T19:21:35.669Z,16.50
2022-09-28T19:24:04.277Z,13.30
2022-09-28T19:26:33.052Z,14.40
2022-09-28T19:29:03.018Z,14.00
2022-09-28T19:31:32.853Z,15.00
2022-09-28T19:34:00.700Z,13.80
2022-09-28T19:36:28.791Z,14.40
2022-09-28T19:38:58.276Z,13.00
2022-09-28T19:41:44.928Z,18.10
2022-09-28T19:44:25.098Z,19.50
2022-09-28T19:47:04.230Z,24.60
2022-09-28T19:49:36.985Z,18.80
2022-09-28T19:52:18.074Z,22.20
2022-09-28T19:54:56.660Z,19.50
2022-09-28T19:57:27.812Z,19.20
2022-09-28T20:00:05.668Z,18.20
2022-09-28T20:02:35.260Z,23.20
2022-09-28T20:05:03.406Z,21.60
2022-09-28T20:07:33.409Z,23.60
2022-09-28T20:10:01.319Z,21.50
2022-09-28T20:12:29.349Z,19.10
2022-09-28T20:14:57.913Z,18.80
2022-09-28T20:17:31.809Z,21.70
2022-09-28T20:19:59.721Z,17.90
2022-09-28T20:22:27.803Z,17.20
2022-09-28T20:24:55.737Z,17.00
2022-09-28T20:27:26.708Z,16.90
2022-09-28T20:29:54.981Z,15.60
2022-09-28T20:32:22.910Z,17.20
2022-09-28T20:34:50.953Z,17.70
2022-09-28T20:37:19.468Z,15.10
2022-09-28T20:39:47.485Z,17.00
2022-09-28T20:42:15.627Z,17.70
2022-09-28T20:44:44.066Z,16.00
2022-09-28T20:47:11.979Z,13.90
2022-09-28T20:49:39.972Z,20.20
2022-09-28T20:52:07.820Z,15.60
2022-09-28T20:54:35.744Z,18.20
2022-09-28T20:57:17.465Z,18.00
2022-09-28T20:59:54.312Z,19.20
2022-09-28T21:02:22.984Z,24.10
2022-09-28T21:04:51.009Z,19.60
2022-09-28T21:07:20.366Z,20.60
2022-09-28T21:09:48.553Z,20.20
2022-09-28T21:12:17.130Z,25.50
2022-09-28T21:14:44.961Z,20.70
2022-09-28T21:17:12.896Z,19.70
2022-09-28T21:19:41.014Z,18.10
2022-09-28T21:22:08.962Z,22.10
2022-09-28T21:24:37.238Z,17.50
2022-09-28T21:27:07.741Z,16.60
2022-09-28T21:29:35.563Z,15.30
2022-09-28T21:32:03.469Z,14.90
2022-09-28T21:34:32.449Z,15.60
2022-09-28T21:37:00.434Z,17.30
2022-09-28T21:39:28.375Z,17.20
2022-09-28T21:41:56.205Z,22.50
2022-09-28T21:44:24.130Z,20.70
2022-09-28T21:46:52.002Z,20.20
2022-09-28T21:49:20.038Z,19.50
2022-09-28T21:51:47.933Z,19.10
2022-09-28T21:54:15.941Z,15.00
2022-09-28T21:56:44.032Z,15.90
2022-09-28T21:59:11.908Z,15.40
2022-09-28T22:01:41.955Z,15.40
2022-09-28T22:04:10.640Z,15.40
2022-09-28T22:06:39.099Z,16.60
2022-09-28T22:09:08.173Z,17.70
2022-09-28T22:11:37.010Z,17.70
2022-09-28T22:14:05.004Z,14.20
2022-09-28T22:16:32.962Z,15.20
2022-09-28T22:19:01.203Z,17.90
2022-09-28T22:21:32.751Z,16.10
2022-09-28T22:24:02.850Z,17.90
2022-09-28T22:26:33.772Z,17.90
2022-09-28T22:29:05.112Z,16.50
2022-09-28T22:31:35.493Z,16.70
2022-09-28T22:34:04.074Z,18.40
2022-09-28T22:36:33.348Z,18.50
2022-09-28T22:39:01.358Z,17.50
2022-09-28T22:41:30.062Z,18.00
2022-09-28T22:43:59.202Z,17.60
2022-09-28T22:46:29.445Z,19.90
2022-09-28T22:48:59.268Z,21.10
2022-09-28T22:51:29.887Z,20.50
2022-09-28T22:53:58.167Z,20.20
2022-09-28T22:56:26.321Z,22.70
2022-09-28T22:58:54.269Z,22.20
2022-09-28T23:01:25.160Z,21.90
2022-09-28T23:03:54.394Z,23.10
2022-09-28T23:06:26.143Z,23.10
2022-09-28T23:08:54.260Z,24.20
2022-09-28T23:11:22.297Z,24.30
2022-09-28T23:13:51.575Z,25.50
2022-09-28T23:16:20.499Z,25.20
2022-09-28T23:18:49.334Z,27.20
2022-09-28T23:21:19.897Z,25.40
2022-09-28T23:23:53.345Z,28.50
2022-09-28T23:26:27.455Z,27.80
2022-09-28T23:28:56.215Z,27.20
2022-09-28T23:31:28.069Z,25.00
2022-09-28T23:34:01.499Z,24.70
2022-09-28T23:36:29.884Z,24.70
2022-09-28T23:38:58.254Z,26.20
2022-09-28T23:41:26.446Z,28.10
2022-09-28T23:43:57.413Z,25.00
2022-09-28T23:46:25.737Z,25.90
2022-09-28T23:48:53.776Z,26.50
2022-09-28T23:51:21.693Z,25.10
2022-09-28T23:53:49.672Z,24.50
2022-09-28T23:56:17.765Z,27.20
2022-09-28T23:58:45.750Z,28.40
